createdAt,value
2019-01-27T00:01:24.475Z,50.73
2019-01-27T00:04:02.178Z,52.23
2019-01-27T00:06:38.989Z,77.70
2019-01-27T00:09:17.427Z,73.27
2019-01-27T00:11:53.490Z,73.43
2019-01-27T00:14:31.436Z,77.63
2019-01-27T00:17:08.188Z,70.50
2019-01-27T00:19:44.998Z,74.07
2019-01-27T00:22:21.952Z,69.85
2019-01-27T00:24:58.931Z,68.20
2019-01-27T00:27:35.634Z,74.63
2019-01-27T00:30:17.165Z,85.33
2019-01-27T00:32:54.363Z,85.83
2019-01-27T00:35:31.170Z,81.33
2019-01-27T00:38:08.467Z,73.97
2019-01-27T00:40:45.216Z,72.08
2019-01-27T00:43:22.116Z,69.67
2019-01-27T00:45:59.537Z,67.00
2019-01-27T00:48:36.141Z,64.37
2019-01-27T00:51:12.924Z,64.07
2019-01-27T00:53:50.036Z,62.23
2019-01-27T00:56:26.818Z,60.07
2019-01-27T00:59:04.167Z,58.65
2019-01-27T01:01:41.397Z,56.42
2019-01-27T01:04:18.048Z,54.75
2019-01-27T01:06:55.218Z,55.98
2019-01-27T01:09:31.861Z,54.42
2019-01-27T01:12:09.822Z,102.42
2019-01-27T01:14:47.042Z,51.70
2019-01-27T01:17:24.033Z,50.95
2019-01-27T01:20:00.595Z,52.20
2019-01-27T01:22:37.409Z,48.73
2019-01-27T01:25:16.677Z,48.25
2019-01-27T01:27:55.206Z,46.75
2019-01-27T01:30:33.369Z,48.17
2019-01-27T01:33:10.203Z,46.53
2019-01-27T01:35:47.108Z,45.30
2019-01-27T01:38:23.882Z,44.15
2019-01-27T01:41:01.190Z,44.15
2019-01-27T01:43:38.061Z,42.20
2019-01-27T01:46:15.503Z,39.53
2019-01-27T01:48:52.237Z,39.05
2019-01-27T01:51:28.880Z,40.05
2019-01-27T01:54:06.118Z,38.88
2019-01-27T01:56:43.102Z,39.30
2019-01-27T01:59:20.008Z,36.00
2019-01-27T02:01:56.912Z,38.78
2019-01-27T02:04:33.516Z,38.73
2019-01-27T02:07:09.954Z,39.58
2019-01-27T02:09:47.136Z,39.48
2019-01-27T02:12:23.761Z,41.00
2019-01-27T02:15:00.926Z,40.80
2019-01-27T02:17:38.391Z,42.75
2019-01-27T02:20:15.425Z,41.35
2019-01-27T02:22:51.843Z,38.67
2019-01-27T02:25:28.821Z,38.50
2019-01-27T02:28:05.628Z,38.55
2019-01-27T02:30:42.806Z,38.15
2019-01-27T02:33:19.098Z,34.70
2019-01-27T02:35:56.190Z,105.87
2019-01-27T02:38:33.077Z,35.95
2019-01-27T02:41:11.332Z,35.08
2019-01-27T02:43:48.116Z,36.23
2019-01-27T02:46:25.483Z,35.48
2019-01-27T02:49:02.569Z,34.38
2019-01-27T02:51:39.421Z,34.05
2019-01-27T02:54:16.968Z,36.30
2019-01-27T02:56:53.632Z,36.88
2019-01-27T02:59:30.588Z,37.90
2019-01-27T03:02:08.597Z,36.77
2019-01-27T03:04:45.048Z,46.83
2019-01-27T03:07:32.006Z,47.67
2019-01-27T03:10:26.880Z,38.05
2019-01-27T03:13:03.839Z,38.92
2019-01-27T03:15:40.953Z,38.98
2019-01-27T03:18:17.768Z,27.55
2019-01-27T03:20:54.543Z,28.02
2019-01-27T03:23:31.543Z,29.48
2019-01-27T03:26:08.253Z,28.62
2019-01-27T03:28:46.245Z,28.27
2019-01-27T03:31:26.996Z,27.85
2019-01-27T03:34:03.752Z,28.90
2019-01-27T03:36:40.564Z,29.98
2019-01-27T03:39:18.221Z,30.00
2019-01-27T03:41:55.356Z,31.30
2019-01-27T03:44:33.369Z,29.10
2019-01-27T03:47:10.241Z,29.25
2019-01-27T03:49:47.980Z,28.95
2019-01-27T03:52:25.148Z,29.52
2019-01-27T03:55:02.369Z,27.75
2019-01-27T03:57:39.314Z,28.30
2019-01-27T04:00:19.969Z,26.82
2019-01-27T04:02:56.731Z,28.40
2019-01-27T04:05:34.028Z,30.30
2019-01-27T04:08:10.501Z,26.30
2019-01-27T04:10:47.534Z,26.73
2019-01-27T04:13:24.166Z,25.08
2019-01-27T04:16:01.341Z,26.23
2019-01-27T04:18:38.213Z,27.62
2019-01-27T04:21:14.784Z,24.45
2019-01-27T04:23:51.771Z,23.83
2019-01-27T04:26:28.786Z,23.70
2019-01-27T04:29:06.052Z,25.00
2019-01-27T04:31:42.355Z,24.75
2019-01-27T04:34:21.288Z,24.25
2019-01-27T04:36:59.098Z,24.47
2019-01-27T04:39:36.106Z,23.38
2019-01-27T04:42:12.704Z,22.80
2019-01-27T04:44:51.427Z,21.93
2019-01-27T04:47:28.352Z,30.88
2019-01-27T04:50:05.355Z,25.23
2019-01-27T04:52:42.219Z,23.32
2019-01-27T04:55:19.521Z,22.90
2019-01-27T04:57:56.158Z,23.92
2019-01-27T05:00:34.906Z,23.02
2019-01-27T05:03:18.599Z,23.73
2019-01-27T05:05:56.014Z,22.77
2019-01-27T05:08:32.903Z,22.15
2019-01-27T05:11:09.974Z,22.50
2019-01-27T05:13:46.819Z,22.17
2019-01-27T05:16:23.803Z,22.37
2019-01-27T05:19:00.805Z,23.07
2019-01-27T05:21:37.991Z,22.73
2019-01-27T05:24:14.862Z,22.62
2019-01-27T05:26:51.608Z,22.65
2019-01-27T05:29:28.576Z,22.73
2019-01-27T05:32:05.616Z,34.67
2019-01-27T05:34:42.287Z,27.95
2019-01-27T05:37:19.468Z,28.67
2019-01-27T05:39:56.273Z,24.00
2019-01-27T05:42:33.033Z,23.55
2019-01-27T05:45:10.639Z,23.22
2019-01-27T05:47:47.873Z,24.35
2019-01-27T05:50:25.168Z,25.23
2019-01-27T05:53:01.795Z,25.85
2019-01-27T05:55:38.320Z,47.78
2019-01-27T05:58:15.512Z,24.23
2019-01-27T06:00:52.314Z,61.25
2019-01-27T06:03:29.488Z,21.35
2019-01-27T06:06:07.380Z,21.35
2019-01-27T06:08:45.680Z,20.80
2019-01-27T06:11:23.462Z,23.18
2019-01-27T06:14:01.586Z,21.90
2019-01-27T06:16:39.310Z,20.75
2019-01-27T06:19:16.139Z,22.77
2019-01-27T06:21:52.566Z,20.77
2019-01-27T06:24:29.535Z,20.72
2019-01-27T06:27:06.264Z,20.12
2019-01-27T06:29:43.134Z,20.92
2019-01-27T06:32:38.818Z,21.52
2019-01-27T06:35:15.803Z,20.37
2019-01-27T06:37:52.403Z,21.17
2019-01-27T06:40:29.272Z,23.00
2019-01-27T06:43:05.733Z,22.62
2019-01-27T06:45:43.511Z,20.82
2019-01-27T06:48:20.907Z,21.40
2019-01-27T06:50:58.096Z,20.95
2019-01-27T06:53:35.209Z,22.40
2019-01-27T06:56:12.891Z,23.75
2019-01-27T06:59:06.890Z,21.90
2019-01-27T07:01:50.807Z,20.60
2019-01-27T07:04:45.615Z,19.85
2019-01-27T07:07:32.743Z,21.00
2019-01-27T07:10:26.194Z,20.17
2019-01-27T07:13:27.020Z,21.02
2019-01-27T07:16:15.151Z,19.90
2019-01-27T07:19:12.825Z,25.48
2019-01-27T07:22:09.770Z,26.73
2019-01-27T07:24:55.612Z,19.17
2019-01-27T07:27:41.870Z,17.35
2019-01-27T07:30:49.962Z,19.37
2019-01-27T07:33:47.636Z,21.10
2019-01-27T07:36:49.192Z,21.15
2019-01-27T07:39:53.852Z,20.77
2019-01-27T07:42:51.902Z,19.07
2019-01-27T07:45:45.267Z,19.12
2019-01-27T07:48:41.164Z,19.42
2019-01-27T07:51:47.970Z,18.82
2019-01-27T07:54:47.406Z,18.98
2019-01-27T07:57:51.395Z,18.87
2019-01-27T08:00:45.395Z,18.73
2019-01-27T08:03:55.745Z,18.48
2019-01-27T08:06:49.412Z,18.65
2019-01-27T08:09:44.514Z,18.85
2019-01-27T08:12:43.112Z,17.73
2019-01-27T08:15:38.224Z,19.12
2019-01-27T08:18:46.336Z,18.25
2019-01-27T08:21:32.177Z,18.52
2019-01-27T08:24:25.449Z,17.37
2019-01-27T08:27:12.944Z,17.90
2019-01-27T08:30:20.237Z,17.07
2019-01-27T08:33:18.273Z,16.10
2019-01-27T08:36:12.365Z,16.12
2019-01-27T08:39:08.563Z,17.37
2019-01-27T08:42:03.964Z,17.87
2019-01-27T08:44:56.580Z,17.00
2019-01-27T08:47:33.515Z,18.45
2019-01-27T08:50:14.120Z,19.25
2019-01-27T08:52:51.237Z,18.82
2019-01-27T08:55:28.464Z,19.23
2019-01-27T08:58:07.345Z,18.82
2019-01-27T09:00:49.816Z,18.45
2019-01-27T09:03:45.226Z,18.32
2019-01-27T09:06:32.820Z,18.15
2019-01-27T09:09:20.551Z,22.20
2019-01-27T09:12:15.685Z,19.90
2019-01-27T09:15:03.632Z,19.70
2019-01-27T09:17:58.148Z,19.42
2019-01-27T09:20:43.301Z,19.10
2019-01-27T09:23:39.839Z,17.90
2019-01-27T09:26:28.523Z,19.05
2019-01-27T09:29:18.895Z,17.90
2019-01-27T09:32:04.167Z,17.87
2019-01-27T09:34:47.453Z,17.57
2019-01-27T09:37:41.267Z,17.70
2019-01-27T09:40:48.415Z,17.42
2019-01-27T09:43:52.024Z,17.62
2019-01-27T09:46:58.876Z,17.57
2019-01-27T09:50:02.865Z,17.48
2019-01-27T09:53:00.579Z,18.65
2019-01-27T09:55:51.003Z,19.20
2019-01-27T09:58:48.800Z,17.07
2019-01-27T10:01:56.388Z,18.15
2019-01-27T10:04:57.853Z,18.17
2019-01-27T10:07:44.690Z,19.10
2019-01-27T10:10:48.574Z,19.12
2019-01-27T10:13:43.788Z,19.70
2019-01-27T10:16:39.011Z,19.17
2019-01-27T10:19:32.708Z,19.27
2019-01-27T10:22:30.443Z,19.57
2019-01-27T10:25:25.845Z,19.07
2019-01-27T10:28:19.647Z,17.52
2019-01-27T10:31:11.359Z,18.27
2019-01-27T10:33:56.166Z,17.17
2019-01-27T10:37:11.661Z,17.70
2019-01-27T10:39:55.190Z,18.52
2019-01-27T10:42:39.973Z,18.60
2019-01-27T10:45:40.857Z,21.15
2019-01-27T10:48:40.181Z,25.00
2019-01-27T10:51:43.859Z,32.95
2019-01-27T10:54:37.869Z,27.37
2019-01-27T10:57:31.108Z,37.93
2019-01-27T11:00:37.978Z,100.10
2019-01-27T11:03:40.372Z,82.80
2019-01-27T11:06:27.377Z,57.75
2019-01-27T11:09:25.547Z,50.83
2019-01-27T11:12:23.332Z,40.90
2019-01-27T11:15:13.397Z,42.27
2019-01-27T11:18:06.777Z,41.23
2019-01-27T11:21:04.942Z,41.63
2019-01-27T11:23:59.576Z,44.45
2019-01-27T11:27:03.570Z,45.00
2019-01-27T11:29:55.591Z,48.42
2019-01-27T11:32:50.201Z,45.70
2019-01-27T11:35:50.956Z,43.85
2019-01-27T11:38:44.511Z,39.35
2019-01-27T11:41:31.565Z,38.40
2019-01-27T11:44:29.529Z,39.13
2019-01-27T11:47:31.671Z,27.52
2019-01-27T11:50:29.692Z,29.70
2019-01-27T11:53:08.941Z,33.13
2019-01-27T11:55:46.446Z,32.45
2019-01-27T11:58:23.381Z,34.15
2019-01-27T12:01:02.660Z,35.50
2019-01-27T12:03:42.248Z,39.18
2019-01-27T12:06:19.880Z,41.80
2019-01-27T12:08:57.075Z,46.40
2019-01-27T12:11:34.050Z,35.78
2019-01-27T12:14:10.767Z,33.42
2019-01-27T12:16:47.703Z,31.55
2019-01-27T12:19:24.670Z,27.07
2019-01-27T12:22:01.435Z,26.00
2019-01-27T12:24:38.728Z,24.30
2019-01-27T12:27:15.883Z,25.27
2019-01-27T12:29:52.899Z,24.37
2019-01-27T12:32:28.895Z,24.87
2019-01-27T12:35:05.777Z,24.75
2019-01-27T12:37:43.067Z,28.10
2019-01-27T12:40:25.308Z,37.17
2019-01-27T12:43:04.820Z,33.20
2019-01-27T12:45:42.358Z,32.33
2019-01-27T12:48:19.976Z,33.53
2019-01-27T12:50:58.614Z,31.65
2019-01-27T12:53:35.851Z,35.13
2019-01-27T12:56:12.843Z,39.13
2019-01-27T12:58:50.246Z,37.05
2019-01-27T13:01:26.806Z,35.92
2019-01-27T13:04:05.290Z,36.55
2019-01-27T13:06:42.809Z,36.77
2019-01-27T13:09:19.541Z,37.20
2019-01-27T13:11:57.119Z,37.58
2019-01-27T13:14:33.892Z,36.98
2019-01-27T13:17:10.932Z,39.40
2019-01-27T13:19:53.727Z,38.67
2019-01-27T13:22:27.174Z,38.95
2019-01-27T13:25:03.862Z,39.25
2019-01-27T13:27:40.810Z,38.02
2019-01-27T13:30:20.053Z,37.40
2019-01-27T13:32:57.150Z,37.05
2019-01-27T13:35:38.749Z,39.20
2019-01-27T13:38:12.749Z,40.38
2019-01-27T13:40:50.834Z,39.67
2019-01-27T13:43:28.480Z,39.80
2019-01-27T13:46:05.468Z,37.73
2019-01-27T13:48:42.534Z,37.30
2019-01-27T13:51:19.813Z,38.55
2019-01-27T13:53:57.360Z,38.05
2019-01-27T13:56:34.580Z,36.75
2019-01-27T13:59:11.206Z,37.65
2019-01-27T14:01:49.528Z,37.23
2019-01-27T14:04:26.877Z,36.73
2019-01-27T14:07:04.363Z,37.15
2019-01-27T14:09:42.442Z,36.42
2019-01-27T14:12:20.102Z,37.45
2019-01-27T14:14:57.026Z,36.28
2019-01-27T14:17:34.005Z,37.83
2019-01-27T14:20:14.008Z,35.98
2019-01-27T14:22:51.569Z,37.80
2019-01-27T14:25:30.468Z,37.42
2019-01-27T14:28:07.780Z,35.90
2019-01-27T14:30:47.453Z,36.08
2019-01-27T14:33:25.386Z,36.17
2019-01-27T14:36:02.289Z,36.25
2019-01-27T14:38:39.683Z,35.78
2019-01-27T14:41:16.572Z,36.17
2019-01-27T14:43:54.149Z,35.80
2019-01-27T14:46:31.327Z,35.73
2019-01-27T14:49:07.785Z,40.88
2019-01-27T14:51:43.897Z,39.15
2019-01-27T14:54:21.213Z,37.17
2019-01-27T14:56:57.908Z,38.58
2019-01-27T14:59:34.572Z,39.92
2019-01-27T15:02:11.277Z,39.88
2019-01-27T15:04:48.333Z,37.75
2019-01-27T15:07:25.215Z,37.17
2019-01-27T15:10:01.821Z,37.78
2019-01-27T15:12:38.820Z,37.33
2019-01-27T15:15:18.009Z,36.63
2019-01-27T15:17:55.204Z,36.00
2019-01-27T15:20:34.622Z,38.17
2019-01-27T15:23:11.324Z,36.70
2019-01-27T15:25:49.480Z,35.58
2019-01-27T15:28:29.197Z,35.00
2019-01-27T15:31:06.537Z,34.15
2019-01-27T15:33:43.578Z,35.35
2019-01-27T15:36:20.359Z,35.68
2019-01-27T15:38:57.219Z,36.05
2019-01-27T15:41:34.060Z,36.03
2019-01-27T15:44:11.624Z,36.83
2019-01-27T15:46:48.647Z,36.47
2019-01-27T15:49:25.342Z,36.50
2019-01-27T15:52:02.111Z,36.55
2019-01-27T15:54:39.550Z,36.38
2019-01-27T15:57:16.561Z,36.85
2019-01-27T15:59:53.169Z,37.05
2019-01-27T16:02:29.404Z,40.88
2019-01-27T16:05:06.160Z,43.45
2019-01-27T16:07:42.891Z,42.90
2019-01-27T16:10:21.893Z,44.48
2019-01-27T16:12:59.104Z,45.00
2019-01-27T16:15:37.069Z,45.58
2019-01-27T16:18:13.987Z,45.80
2019-01-27T16:20:50.816Z,43.63
2019-01-27T16:23:44.830Z,43.98
2019-01-27T16:26:21.387Z,39.23
2019-01-27T16:28:58.878Z,39.98
2019-01-27T16:31:49.768Z,38.90
2019-01-27T16:34:50.660Z,40.12
2019-01-27T16:37:27.087Z,39.30
2019-01-27T16:40:04.105Z,38.23
2019-01-27T16:42:40.622Z,39.38
2019-01-27T16:45:19.363Z,39.05
2019-01-27T16:47:56.005Z,38.88
2019-01-27T16:50:32.819Z,40.52
2019-01-27T16:53:09.579Z,40.33
2019-01-27T16:55:46.507Z,38.83
2019-01-27T16:58:23.346Z,39.67
2019-01-27T17:01:00.682Z,38.45
2019-01-27T17:03:39.186Z,39.27
2019-01-27T17:06:15.763Z,39.40
2019-01-27T17:08:52.377Z,39.30
2019-01-27T17:11:28.959Z,40.23
2019-01-27T17:14:05.951Z,40.43
2019-01-27T17:16:43.903Z,40.40
2019-01-27T17:19:20.657Z,41.73
2019-01-27T17:21:57.205Z,43.50
2019-01-27T17:24:36.686Z,42.58
2019-01-27T17:27:13.359Z,42.40
2019-01-27T17:29:52.910Z,41.85
2019-01-27T17:32:30.191Z,43.95
2019-01-27T17:35:07.362Z,41.70
2019-01-27T17:37:44.978Z,43.08
2019-01-27T17:40:21.169Z,42.65
2019-01-27T17:42:58.422Z,41.00
2019-01-27T17:45:36.050Z,41.37
2019-01-27T17:48:12.311Z,41.63
2019-01-27T17:50:48.778Z,41.92
2019-01-27T17:53:25.615Z,43.02
2019-01-27T17:56:02.261Z,42.67
2019-01-27T17:58:54.314Z,42.35
2019-01-27T18:01:49.540Z,43.13
2019-01-27T18:04:38.483Z,41.48
2019-01-27T18:07:42.334Z,42.17
2019-01-27T18:10:46.873Z,41.80
2019-01-27T18:13:50.795Z,41.77
2019-01-27T18:16:27.942Z,43.70
2019-01-27T18:19:04.508Z,43.68
2019-01-27T18:21:41.477Z,43.00
2019-01-27T18:24:18.132Z,44.47
2019-01-27T18:26:54.960Z,45.28
2019-01-27T18:29:33.865Z,44.00
2019-01-27T18:32:11.139Z,43.57
2019-01-27T18:34:48.283Z,42.35
2019-01-27T18:37:25.325Z,44.33
2019-01-27T18:40:02.086Z,44.38
2019-01-27T18:42:39.129Z,42.60
2019-01-27T18:45:17.578Z,42.33
2019-01-27T18:47:55.060Z,41.90
2019-01-27T18:50:32.306Z,41.63
2019-01-27T18:53:25.553Z,41.00
2019-01-27T18:56:16.604Z,43.30
2019-01-27T18:59:27.038Z,43.15
2019-01-27T19:02:28.094Z,42.77
2019-01-27T19:05:14.923Z,42.05
2019-01-27T19:08:08.361Z,42.10
2019-01-27T19:11:06.721Z,41.05
2019-01-27T19:14:16.017Z,40.83
2019-01-27T19:17:26.034Z,41.35
2019-01-27T19:20:16.038Z,40.10
2019-01-27T19:23:21.615Z,40.80
2019-01-27T19:26:18.251Z,40.80
2019-01-27T19:29:08.615Z,40.80
2019-01-27T19:32:01.528Z,39.10
2019-01-27T19:34:56.565Z,40.05
2019-01-27T19:37:53.041Z,39.73
2019-01-27T19:40:46.183Z,38.55
2019-01-27T19:43:46.143Z,38.13
2019-01-27T19:46:46.939Z,37.98
2019-01-27T19:49:46.939Z,37.93
2019-01-27T19:52:44.731Z,37.53
2019-01-27T19:55:38.384Z,37.77
2019-01-27T19:58:22.586Z,38.15
2019-01-27T20:01:36.081Z,36.13
2019-01-27T20:04:24.406Z,36.93
2019-01-27T20:07:15.131Z,36.08
2019-01-27T20:10:09.407Z,35.78
2019-01-27T20:13:08.722Z,34.10
2019-01-27T20:16:15.717Z,34.03
2019-01-27T20:19:20.447Z,32.93
2019-01-27T20:22:12.345Z,34.40
2019-01-27T20:24:58.231Z,34.75
2019-01-27T20:28:11.290Z,33.10
2019-01-27T20:31:09.396Z,33.28
2019-01-27T20:34:06.944Z,33.00
2019-01-27T20:37:05.124Z,32.63
2019-01-27T20:39:55.660Z,34.13
2019-01-27T20:42:41.195Z,33.13
2019-01-27T20:45:48.494Z,34.17
2019-01-27T20:48:41.371Z,33.63
2019-01-27T20:51:51.598Z,32.50
2019-01-27T20:54:46.501Z,33.80
2019-01-27T20:57:29.783Z,33.33
2019-01-27T21:00:26.942Z,34.17
2019-01-27T21:03:20.370Z,33.60
2019-01-27T21:06:05.646Z,34.00
2019-01-27T21:08:52.004Z,31.43
2019-01-27T21:11:49.324Z,32.23
2019-01-27T21:14:40.776Z,34.57
2019-01-27T21:17:39.116Z,32.90
2019-01-27T21:20:19.122Z,32.95
2019-01-27T21:22:56.131Z,33.97
2019-01-27T21:25:32.840Z,32.77
2019-01-27T21:28:10.042Z,33.67
2019-01-27T21:30:46.646Z,35.05
2019-01-27T21:33:23.673Z,33.73
2019-01-27T21:36:00.683Z,34.67
2019-01-27T21:38:39.026Z,34.20
2019-01-27T21:41:15.806Z,32.95
2019-01-27T21:43:52.436Z,34.43
2019-01-27T21:46:29.501Z,30.73
2019-01-27T21:49:06.328Z,33.70
2019-01-27T21:51:43.721Z,33.83
2019-01-27T21:54:20.139Z,33.70
2019-01-27T21:56:57.013Z,33.43
2019-01-27T21:59:34.376Z,34.10
2019-01-27T22:02:11.200Z,33.73
2019-01-27T22:04:49.505Z,32.77
2019-01-27T22:07:26.363Z,32.73
2019-01-27T22:10:03.354Z,33.13
2019-01-27T22:12:40.229Z,34.30
2019-01-27T22:15:17.316Z,33.47
2019-01-27T22:17:54.388Z,34.33
2019-01-27T22:20:31.466Z,33.93
2019-01-27T22:23:08.346Z,33.83
2019-01-27T22:25:45.309Z,34.03
2019-01-27T22:28:21.864Z,33.60
2019-01-27T22:30:58.698Z,32.97
2019-01-27T22:33:35.447Z,34.83
2019-01-27T22:36:12.664Z,34.00
2019-01-27T22:38:49.868Z,35.03
2019-01-27T22:41:26.505Z,35.17
2019-01-27T22:44:03.531Z,51.17
2019-01-27T22:46:40.433Z,35.30
2019-01-27T22:49:17.961Z,35.83
2019-01-27T22:51:54.908Z,35.73
2019-01-27T22:54:31.852Z,35.30
2019-01-27T22:57:08.596Z,35.63
2019-01-27T22:59:45.329Z,36.77
2019-01-27T23:02:22.198Z,34.90
2019-01-27T23:04:58.361Z,36.83
2019-01-27T23:07:35.302Z,36.50
2019-01-27T23:10:12.161Z,41.30
2019-01-27T23:12:49.133Z,46.63
2019-01-27T23:15:25.855Z,55.10
2019-01-27T23:18:02.627Z,54.10
2019-01-27T23:20:40.038Z,44.40
2019-01-27T23:23:16.680Z,44.90
2019-01-27T23:25:53.868Z,69.63
2019-01-27T23:28:30.685Z,60.93
2019-01-27T23:31:08.012Z,64.37
2019-01-27T23:33:44.771Z,56.03
2019-01-27T23:36:21.743Z,56.90
2019-01-27T23:38:59.012Z,52.83
2019-01-27T23:41:35.755Z,47.30
2019-01-27T23:44:12.475Z,44.03
2019-01-27T23:46:49.969Z,43.33
2019-01-27T23:49:26.364Z,42.67
2019-01-27T23:52:04.115Z,43.80
2019-01-27T23:54:40.964Z,43.40
2019-01-27T23:57:18.443Z,61.90
2019-01-27T23:59:56.153Z,58.07
